createdAt,value
2023-04-24T00:01:02.209Z,38.06
2023-04-24T00:03:30.321Z,37.97
2023-04-24T00:06:00.196Z,37.88
2023-04-24T00:08:27.153Z,37.81
2023-04-24T00:10:53.979Z,37.90
2023-04-24T00:13:20.784Z,37.80
2023-04-24T00:15:47.592Z,37.71
2023-04-24T00:18:14.403Z,37.58
2023-04-24T00:20:41.195Z,37.57
2023-04-24T00:23:07.974Z,37.47
2023-04-24T00:25:34.797Z,37.47
2023-04-24T00:28:01.641Z,37.40
2023-04-24T00:30:28.464Z,37.22
2023-04-24T00:32:56.245Z,37.19
2023-04-24T00:35:24.483Z,37.14
2023-04-24T00:37:51.310Z,37.10
2023-04-24T00:40:19.195Z,37.13
2023-04-24T00:42:47.005Z,36.99
2023-04-24T00:45:14.107Z,37.09
2023-04-24T00:47:40.998Z,37.05
2023-04-24T00:50:08.619Z,37.03
2023-04-24T00:52:35.497Z,36.97
2023-04-24T00:55:02.418Z,36.95
2023-04-24T00:57:29.530Z,36.79
2023-04-24T00:59:56.338Z,36.77
2023-04-24T01:02:25.505Z,36.81
2023-04-24T01:04:52.525Z,36.80
2023-04-24T01:07:22.394Z,36.86
2023-04-24T01:09:53.187Z,36.88
2023-04-24T01:12:20.541Z,36.87
2023-04-24T01:14:47.418Z,36.75
2023-04-24T01:17:16.360Z,36.78
2023-04-24T01:19:46.122Z,36.59
2023-04-24T01:22:17.294Z,36.58
2023-04-24T01:24:44.318Z,36.69
2023-04-24T01:27:12.726Z,36.70
2023-04-24T01:29:39.701Z,36.61
2023-04-24T01:32:06.670Z,36.52
2023-04-24T01:34:33.517Z,36.51
2023-04-24T01:37:00.829Z,36.40
2023-04-24T01:39:29.568Z,36.47
2023-04-24T01:41:57.234Z,36.45
2023-04-24T01:44:24.440Z,36.45
2023-04-24T01:46:51.703Z,36.36
2023-04-24T01:49:18.867Z,36.27
2023-04-24T01:51:46.820Z,36.30
2023-04-24T01:54:13.655Z,36.26
2023-04-24T01:56:43.745Z,36.25
2023-04-24T01:59:14.115Z,36.10
2023-04-24T02:01:43.046Z,36.09
2023-04-24T02:04:10.466Z,36.05
2023-04-24T02:06:37.527Z,35.92
2023-04-24T02:09:04.517Z,35.98
2023-04-24T02:11:32.463Z,35.79
2023-04-24T02:14:02.547Z,35.94
2023-04-24T02:16:34.184Z,35.79
2023-04-24T02:19:01.378Z,35.91
2023-04-24T02:21:28.901Z,35.81
2023-04-24T02:23:56.013Z,35.88
2023-04-24T02:26:23.919Z,35.92
2023-04-24T02:28:52.233Z,35.96
2023-04-24T02:31:19.936Z,36.03
2023-04-24T02:33:48.490Z,36.12
2023-04-24T02:36:15.477Z,36.09
2023-04-24T02:38:42.283Z,36.04
2023-04-24T02:41:09.113Z,35.98
2023-04-24T02:43:35.911Z,36.11
2023-04-24T02:46:02.916Z,36.00
2023-04-24T02:48:29.825Z,36.07
2023-04-24T02:50:56.641Z,36.02
2023-04-24T02:53:24.435Z,36.00
2023-04-24T02:55:51.348Z,35.86
2023-04-24T02:58:18.595Z,35.82
2023-04-24T03:00:45.649Z,35.86
2023-04-24T03:03:12.580Z,35.81
2023-04-24T03:05:39.618Z,35.91
2023-04-24T03:08:07.304Z,35.91
2023-04-24T03:10:34.084Z,36.41
2023-04-24T03:13:00.975Z,36.98
2023-04-24T03:15:27.747Z,37.11
2023-04-24T03:17:56.813Z,37.28
2023-04-24T03:20:24.176Z,37.46
2023-04-24T03:22:51.188Z,37.59
2023-04-24T03:25:18.034Z,37.69
2023-04-24T03:27:44.854Z,37.90
2023-04-24T03:30:34.810Z,37.96
2023-04-24T03:33:01.997Z,37.39
2023-04-24T03:35:31.125Z,35.77
2023-04-24T03:37:59.179Z,35.40
2023-04-24T03:40:54.853Z,35.15
2023-04-24T03:43:34.345Z,34.87
2023-04-24T03:46:01.500Z,34.57
2023-04-24T03:48:29.054Z,34.25
2023-04-24T03:50:56.028Z,34.07
2023-04-24T03:53:23.302Z,33.61
2023-04-24T03:55:50.665Z,33.45
2023-04-24T03:58:19.006Z,33.13
2023-04-24T04:00:47.600Z,33.00
2023-04-24T04:03:33.325Z,32.98
2023-04-24T04:06:00.948Z,33.19
2023-04-24T04:08:27.778Z,33.22
2023-04-24T04:10:54.885Z,33.03
2023-04-24T04:13:21.725Z,32.95
2023-04-24T04:15:48.582Z,32.80
2023-04-24T04:18:16.219Z,32.95
2023-04-24T04:20:43.996Z,32.73
2023-04-24T04:23:11.995Z,32.27
2023-04-24T04:25:48.153Z,31.52
2023-04-24T04:28:16.565Z,30.88
2023-04-24T04:30:43.495Z,30.28
2023-04-24T04:33:11.753Z,29.99
2023-04-24T04:35:38.602Z,29.93
2023-04-24T04:38:06.004Z,30.44
2023-04-24T04:40:46.464Z,31.00
2023-04-24T04:43:15.952Z,31.41
2023-04-24T04:45:49.519Z,31.75
2023-04-24T04:48:39.082Z,31.86
2023-04-24T04:51:06.562Z,31.92
2023-04-24T04:53:33.444Z,31.96
2023-04-24T04:56:00.954Z,31.81
2023-04-24T04:58:37.127Z,31.24
2023-04-24T05:01:04.649Z,31.35
2023-04-24T05:03:34.988Z,30.99
2023-04-24T05:06:05.718Z,30.25
2023-04-24T05:08:34.315Z,30.01
2023-04-24T05:11:02.074Z,29.71
2023-04-24T05:13:38.960Z,29.79
2023-04-24T05:16:11.066Z,29.55
2023-04-24T05:18:39.707Z,29.31
2023-04-24T05:21:07.328Z,28.98
2023-04-24T05:23:34.571Z,28.95
2023-04-24T05:26:02.725Z,28.82
2023-04-24T05:28:30.544Z,29.08
2023-04-24T05:31:05.677Z,29.17
2023-04-24T05:33:32.509Z,29.43
2023-04-24T05:35:59.879Z,29.62
2023-04-24T05:38:26.785Z,29.87
2023-04-24T05:40:53.621Z,30.05
2023-04-24T05:43:20.846Z,30.27
2023-04-24T05:45:47.695Z,30.67
2023-04-24T05:48:14.524Z,30.80
2023-04-24T05:50:41.467Z,30.68
2023-04-24T05:53:08.372Z,30.49
2023-04-24T05:55:36.962Z,30.48
2023-04-24T05:58:03.946Z,30.30
2023-04-24T06:00:31.196Z,29.85
2023-04-24T06:03:01.722Z,29.85
2023-04-24T06:05:28.993Z,29.58
2023-04-24T06:07:55.987Z,29.20
2023-04-24T06:10:24.078Z,28.95
2023-04-24T06:12:51.057Z,28.50
2023-04-24T06:15:18.181Z,27.87
2023-04-24T06:17:53.817Z,27.50
2023-04-24T06:20:20.977Z,27.33
2023-04-24T06:22:47.859Z,27.03
2023-04-24T06:25:14.732Z,26.61
2023-04-24T06:27:41.574Z,26.48
2023-04-24T06:30:09.506Z,26.31
2023-04-24T06:32:36.538Z,25.89
2023-04-24T06:35:03.602Z,25.82
2023-04-24T06:40:23.467Z,26.31
2023-04-24T06:42:50.367Z,25.81
2023-04-24T06:45:17.477Z,25.75
2023-04-24T06:47:44.392Z,24.69
2023-04-24T06:50:12.521Z,23.83
2023-04-24T06:52:39.345Z,23.76
2023-04-24T06:55:06.826Z,23.69
2023-04-24T06:57:33.939Z,23.44
2023-04-24T07:00:00.782Z,23.48
2023-04-24T07:02:27.645Z,23.16
2023-04-24T07:04:55.012Z,23.32
2023-04-24T07:07:23.625Z,23.73
2023-04-24T07:09:52.177Z,23.62
2023-04-24T07:12:21.651Z,23.34
2023-04-24T07:14:49.099Z,23.13
2023-04-24T07:17:15.876Z,22.81
2023-04-24T07:19:43.274Z,22.37
2023-04-24T07:22:12.601Z,22.36
2023-04-24T07:24:39.326Z,22.62
2023-04-24T07:27:06.054Z,22.49
2023-04-24T07:29:32.738Z,22.49
2023-04-24T07:32:00.496Z,22.18
2023-04-24T07:34:28.380Z,22.12
2023-04-24T07:36:55.186Z,22.27
2023-04-24T07:39:22.003Z,22.28
2023-04-24T07:41:48.734Z,22.01
2023-04-24T07:44:15.422Z,22.01
2023-04-24T07:46:42.279Z,22.00
2023-04-24T07:49:13.586Z,21.96
2023-04-24T07:51:42.494Z,21.90
2023-04-24T07:54:09.727Z,22.11
2023-04-24T07:56:39.901Z,21.93
2023-04-24T07:59:07.097Z,21.95
2023-04-24T08:01:33.875Z,21.64
2023-04-24T08:04:01.130Z,21.67
2023-04-24T08:06:31.412Z,21.38
2023-04-24T08:08:59.063Z,21.62
2023-04-24T08:11:26.530Z,21.89
2023-04-24T08:13:53.300Z,21.76
2023-04-24T08:16:20.097Z,21.93
2023-04-24T08:18:47.005Z,22.08
2023-04-24T08:21:18.105Z,22.15
2023-04-24T08:23:45.508Z,22.61
2023-04-24T08:26:13.167Z,22.74
2023-04-24T08:28:40.576Z,22.91
2023-04-24T08:31:07.556Z,22.83
2023-04-24T08:33:37.303Z,22.64
2023-04-24T08:36:04.914Z,22.28
2023-04-24T08:38:31.839Z,22.11
2023-04-24T08:40:59.820Z,22.31
2023-04-24T08:43:27.314Z,22.36
2023-04-24T08:45:57.191Z,22.56
2023-04-24T08:48:30.914Z,22.55
2023-04-24T08:50:58.606Z,22.21
2023-04-24T08:53:26.238Z,22.25
2023-04-24T08:55:53.425Z,22.15
2023-04-24T08:58:20.539Z,21.92
2023-04-24T09:00:50.196Z,21.70
2023-04-24T09:03:17.352Z,21.69
2023-04-24T09:05:46.920Z,22.07
2023-04-24T09:08:17.719Z,21.49
2023-04-24T09:10:44.528Z,21.20
2023-04-24T09:13:11.486Z,21.25
2023-04-24T09:15:42.025Z,20.93
2023-04-24T09:18:08.759Z,20.33
2023-04-24T09:20:37.283Z,20.18
2023-04-24T09:23:05.322Z,20.72
2023-04-24T09:25:36.889Z,21.35
2023-04-24T09:28:04.147Z,21.83
2023-04-24T09:30:30.876Z,22.03
2023-04-24T09:33:16.332Z,22.02
2023-04-24T09:35:44.130Z,22.01
2023-04-24T09:38:11.916Z,22.30
2023-04-24T09:40:40.432Z,22.31
2023-04-24T09:43:10.477Z,22.36
2023-04-24T09:45:37.684Z,21.94
2023-04-24T09:48:04.623Z,21.96
2023-04-24T09:50:32.978Z,22.07
2023-04-24T09:53:00.678Z,21.97
2023-04-24T09:55:27.804Z,21.85
2023-04-24T09:57:55.659Z,22.01
2023-04-24T10:00:26.323Z,22.12
2023-04-24T10:03:00.044Z,22.25
2023-04-24T10:05:33.938Z,22.22
2023-04-24T10:08:11.768Z,21.98
2023-04-24T10:10:42.245Z,22.23
2023-04-24T10:13:09.848Z,22.39
2023-04-24T10:15:36.628Z,22.79
2023-04-24T10:18:03.480Z,22.83
2023-04-24T10:20:33.107Z,22.52
2023-04-24T10:23:00.350Z,22.46
2023-04-24T10:25:27.891Z,22.59
2023-04-24T10:27:58.326Z,22.47
2023-04-24T10:30:25.113Z,22.56
2023-04-24T10:32:51.790Z,22.73
2023-04-24T10:35:18.495Z,22.74
2023-04-24T10:37:49.781Z,22.53
2023-04-24T10:40:18.256Z,22.32
2023-04-24T10:42:44.896Z,22.15
2023-04-24T10:45:19.245Z,22.11
2023-04-24T10:47:52.929Z,22.00
2023-04-24T10:50:19.721Z,22.13
2023-04-24T10:52:48.022Z,22.38
2023-04-24T10:55:16.319Z,22.27
2023-04-24T10:58:02.054Z,22.33
2023-04-24T11:00:28.730Z,22.45
2023-04-24T11:02:57.165Z,22.52
2023-04-24T11:05:24.296Z,22.41
2023-04-24T11:08:10.160Z,22.42
2023-04-24T11:10:39.345Z,22.47
2023-04-24T11:13:06.008Z,22.47
2023-04-24T11:15:32.665Z,22.39
2023-04-24T11:17:59.432Z,22.19
2023-04-24T11:20:28.535Z,22.25
2023-04-24T11:22:55.955Z,21.95
2023-04-24T11:25:23.837Z,22.06
2023-04-24T11:27:51.169Z,21.99
2023-04-24T11:30:21.160Z,21.98
2023-04-24T11:32:51.739Z,22.07
2023-04-24T11:35:19.989Z,22.18
2023-04-24T11:37:49.523Z,22.22
2023-04-24T11:40:26.724Z,22.08
2023-04-24T11:42:57.708Z,22.00
2023-04-24T11:45:25.515Z,22.04
2023-04-24T11:47:53.414Z,22.14
2023-04-24T11:50:20.659Z,22.11
2023-04-24T11:52:47.822Z,23.68
2023-04-24T11:55:17.583Z,25.39
2023-04-24T11:57:45.718Z,27.78
2023-04-24T12:00:19.930Z,29.23
2023-04-24T12:02:47.246Z,30.83
2023-04-24T12:05:25.019Z,31.04
2023-04-24T12:07:51.952Z,31.08
2023-04-24T12:10:22.257Z,30.86
2023-04-24T12:12:51.374Z,30.28
2023-04-24T12:15:18.466Z,30.09
2023-04-24T12:17:45.247Z,30.11
2023-04-24T12:20:12.777Z,29.38
2023-04-24T12:22:55.983Z,29.08
2023-04-24T12:25:23.559Z,29.35
2023-04-24T12:27:54.044Z,29.54
2023-04-24T12:30:20.702Z,29.71
2023-04-24T12:32:48.242Z,29.91
2023-04-24T12:35:16.078Z,30.42
2023-04-24T12:37:46.497Z,32.18
2023-04-24T12:40:14.308Z,33.05
2023-04-24T12:42:45.010Z,33.99
2023-04-24T12:45:13.310Z,33.78
2023-04-24T12:47:40.991Z,32.88
2023-04-24T12:50:11.769Z,33.10
2023-04-24T12:52:38.940Z,32.20
2023-04-24T12:55:07.766Z,32.13
2023-04-24T12:57:34.720Z,31.29
2023-04-24T13:00:01.441Z,31.05
2023-04-24T13:02:29.052Z,30.53
2023-04-24T13:04:55.895Z,29.56
2023-04-24T13:07:22.538Z,29.81
2023-04-24T13:09:49.591Z,29.50
2023-04-24T13:12:17.433Z,28.95
2023-04-24T13:14:44.196Z,28.67
2023-04-24T13:17:14.260Z,28.28
2023-04-24T13:19:42.502Z,27.86
2023-04-24T13:22:10.722Z,27.47
2023-04-24T13:24:40.011Z,26.86
2023-04-24T13:27:07.007Z,25.97
2023-04-24T13:29:33.699Z,25.27
2023-04-24T13:32:00.360Z,24.74
2023-04-24T13:34:27.188Z,24.28
2023-04-24T13:36:54.757Z,23.47
2023-04-24T13:39:23.089Z,23.48
2023-04-24T13:41:49.875Z,23.83
2023-04-24T13:44:18.190Z,23.81
2023-04-24T13:46:46.257Z,23.20
2023-04-24T13:49:13.308Z,23.07
2023-04-24T13:51:47.414Z,23.14
2023-04-24T13:54:14.242Z,22.85
2023-04-24T13:56:41.730Z,22.02
2023-04-24T13:59:08.717Z,22.27
2023-04-24T14:01:35.679Z,22.35
2023-04-24T14:04:02.755Z,22.55
2023-04-24T14:06:29.738Z,22.99
2023-04-24T14:08:56.714Z,23.58
2023-04-24T14:11:23.587Z,24.23
2023-04-24T14:13:50.547Z,25.04
2023-04-24T14:16:17.450Z,26.10
2023-04-24T14:18:45.637Z,27.13
2023-04-24T14:21:12.440Z,28.25
2023-04-24T14:23:39.122Z,29.11
2023-04-24T14:26:05.850Z,29.54
2023-04-24T14:28:33.424Z,29.37
2023-04-24T14:31:00.162Z,29.11
2023-04-24T14:33:26.826Z,29.04
2023-04-24T14:35:53.472Z,29.31
2023-04-24T14:38:20.277Z,29.52
2023-04-24T14:43:17.680Z,29.64
2023-04-24T14:45:44.345Z,29.57
2023-04-24T14:48:12.434Z,29.40
2023-04-24T14:50:39.210Z,29.44
2023-04-24T14:53:06.166Z,29.90
2023-04-24T14:55:35.582Z,30.22
2023-04-24T14:58:02.519Z,30.20
2023-04-24T15:00:29.186Z,29.80
2023-04-24T15:02:56.710Z,29.50
2023-04-24T15:05:24.224Z,29.19
2023-04-24T15:07:51.081Z,28.52
2023-04-24T15:10:18.691Z,27.82
2023-04-24T15:12:46.399Z,26.97
2023-04-24T15:15:13.032Z,26.23
2023-04-24T15:17:39.694Z,25.75
2023-04-24T15:20:07.471Z,25.33
2023-04-24T15:22:34.266Z,25.17
2023-04-24T15:25:02.176Z,24.76
2023-04-24T15:27:28.840Z,24.65
2023-04-24T15:29:55.483Z,24.46
2023-04-24T15:32:22.698Z,24.05
2023-04-24T15:34:54.090Z,23.68
2023-04-24T15:37:27.803Z,23.59
2023-04-24T15:39:54.414Z,23.51
2023-04-24T15:42:21.061Z,23.26
2023-04-24T15:44:47.748Z,22.69
2023-04-24T15:47:15.233Z,22.52
2023-04-24T15:49:41.872Z,22.18
2023-04-24T15:52:10.542Z,22.34
2023-04-24T15:54:39.341Z,22.52
2023-04-24T15:57:05.980Z,22.24
2023-04-24T15:59:32.621Z,22.44
2023-04-24T16:01:59.268Z,22.27
2023-04-24T16:04:26.325Z,22.17
2023-04-24T16:06:53.095Z,22.38
2023-04-24T16:09:19.707Z,22.32
2023-04-24T16:11:46.436Z,22.16
2023-04-24T16:14:13.066Z,22.55
2023-04-24T16:16:39.884Z,22.61
2023-04-24T16:19:08.399Z,22.77
2023-04-24T16:21:35.030Z,22.68
2023-04-24T16:24:02.824Z,22.87
2023-04-24T16:26:29.453Z,22.81
2023-04-24T16:28:57.122Z,23.06
2023-04-24T16:31:23.931Z,23.39
2023-04-24T16:33:50.824Z,23.69
2023-04-24T16:36:17.554Z,23.86
2023-04-24T16:38:44.319Z,23.97
2023-04-24T16:41:11.558Z,24.15
2023-04-24T16:43:38.308Z,24.32
2023-04-24T16:46:05.260Z,24.72
2023-04-24T16:48:32.967Z,24.85
2023-04-24T16:50:59.737Z,25.08
2023-04-24T16:53:26.553Z,25.28
2023-04-24T16:55:53.225Z,25.53
2023-04-24T16:58:19.919Z,25.97
2023-04-24T17:00:48.744Z,26.23
2023-04-24T17:03:15.667Z,26.74
2023-04-24T17:05:42.400Z,27.12
2023-04-24T17:08:09.439Z,27.49
2023-04-24T17:10:36.200Z,28.14
2023-04-24T17:13:02.892Z,28.69
2023-04-24T17:15:29.521Z,29.02
2023-04-24T17:17:57.681Z,29.45
2023-04-24T17:20:24.709Z,29.75
2023-04-24T17:22:52.317Z,29.97
2023-04-24T17:25:19.089Z,30.32
2023-04-24T17:27:45.694Z,30.70
2023-04-24T17:30:12.605Z,30.94
2023-04-24T17:32:39.236Z,31.27
2023-04-24T17:35:06.230Z,31.37
2023-04-24T17:37:33.482Z,31.76
2023-04-24T17:40:00.302Z,31.85
2023-04-24T17:42:26.922Z,31.79
2023-04-24T17:44:53.554Z,32.18
2023-04-24T17:47:22.414Z,32.38
2023-04-24T17:49:49.083Z,32.66
2023-04-24T17:52:17.912Z,32.53
2023-04-24T17:54:44.600Z,32.99
2023-04-24T17:57:11.387Z,32.97
2023-04-24T17:59:38.062Z,33.31
2023-04-24T18:02:04.745Z,33.32
2023-04-24T18:04:32.605Z,33.42
2023-04-24T18:06:59.414Z,33.61
2023-04-24T18:09:26.033Z,33.56
2023-04-24T18:11:52.614Z,33.64
2023-04-24T18:14:19.230Z,33.64
2023-04-24T18:16:45.864Z,33.81
2023-04-24T18:19:12.459Z,33.93
2023-04-24T18:21:39.048Z,34.06
2023-04-24T18:24:06.254Z,34.08
2023-04-24T18:26:32.868Z,34.10
2023-04-24T18:28:59.482Z,34.25
2023-04-24T18:31:26.400Z,34.21
2023-04-24T18:33:54.185Z,34.37
2023-04-24T18:36:20.832Z,34.50
2023-04-24T18:38:47.711Z,34.57
2023-04-24T18:41:16.662Z,34.67
2023-04-24T18:43:43.375Z,34.78
2023-04-24T18:46:10.092Z,35.14
2023-04-24T18:48:36.771Z,35.30
2023-04-24T18:51:03.453Z,35.62
2023-04-24T18:53:30.125Z,35.73
2023-04-24T18:58:02.385Z,37.14
2023-04-24T19:00:29.123Z,36.71
2023-04-24T19:02:56.017Z,36.85
2023-04-24T19:05:22.774Z,37.22
2023-04-24T19:07:49.444Z,37.32
2023-04-24T19:10:16.715Z,37.55
2023-04-24T19:12:43.550Z,37.80
2023-04-24T19:15:13.776Z,37.89
2023-04-24T19:17:40.583Z,38.17
2023-04-24T19:20:08.640Z,38.25
2023-04-24T19:22:35.396Z,38.33
2023-04-24T19:25:02.359Z,38.57
2023-04-24T19:27:29.096Z,38.74
2023-04-24T19:29:55.810Z,38.74
2023-04-24T19:32:22.579Z,39.01
2023-04-24T19:34:49.618Z,39.27
2023-04-24T19:37:17.459Z,39.31
2023-04-24T19:39:44.243Z,39.28
2023-04-24T19:42:11.025Z,39.54
2023-04-24T19:44:38.901Z,39.81
2023-04-24T19:47:05.758Z,39.95
2023-04-24T19:49:32.452Z,39.99
2023-04-24T19:51:59.142Z,40.21
2023-04-24T19:54:26.381Z,40.27
2023-04-24T19:56:53.144Z,40.30
2023-04-24T19:59:19.839Z,40.24
2023-04-24T20:01:47.213Z,40.31
2023-04-24T20:04:14.515Z,40.33
2023-04-24T20:06:41.388Z,40.35
2023-04-24T20:09:08.089Z,40.40
2023-04-24T20:11:34.834Z,40.34
2023-04-24T20:14:03.704Z,40.31
2023-04-24T20:16:31.285Z,40.37
2023-04-24T20:18:58.693Z,40.39
2023-04-24T20:21:26.886Z,40.31
2023-04-24T20:23:53.755Z,40.24
2023-04-24T20:26:20.516Z,40.26
2023-04-24T20:28:47.305Z,40.21
2023-04-24T20:31:14.050Z,40.44
2023-04-24T20:33:41.749Z,40.57
2023-04-24T20:36:09.579Z,40.51
2023-04-24T20:38:37.126Z,40.56
2023-04-24T20:41:04.068Z,40.56
2023-04-24T20:43:30.927Z,40.64
2023-04-24T20:45:58.340Z,40.85
2023-04-24T20:48:26.833Z,40.83
2023-04-24T20:50:54.185Z,40.97
2023-04-24T20:53:23.766Z,41.23
2023-04-24T20:55:50.514Z,41.45
2023-04-24T20:58:18.756Z,41.44
2023-04-24T21:00:47.107Z,41.59
2023-04-24T21:03:14.034Z,41.84
2023-04-24T21:05:40.814Z,41.94
2023-04-24T21:08:07.546Z,42.00
2023-04-24T21:10:34.305Z,42.24
2023-04-24T21:13:01.588Z,42.43
2023-04-24T21:15:28.447Z,42.62
2023-04-24T21:17:55.261Z,42.71
2023-04-24T21:20:23.148Z,42.93
2023-04-24T21:22:49.891Z,43.15
2023-04-24T21:25:16.636Z,43.44
2023-04-24T21:27:43.411Z,43.58
2023-04-24T21:30:11.342Z,43.73
2023-04-24T21:32:39.491Z,43.87
2023-04-24T21:35:06.614Z,44.18
2023-04-24T21:37:35.537Z,44.29
2023-04-24T21:40:04.923Z,44.58
2023-04-24T21:42:31.895Z,44.54
2023-04-24T21:44:58.694Z,44.84
2023-04-24T21:47:25.562Z,45.14
2023-04-24T21:49:52.463Z,45.21
2023-04-24T21:52:19.198Z,45.23
2023-04-24T21:54:45.989Z,45.35
2023-04-24T21:57:12.717Z,45.45
2023-04-24T21:59:39.440Z,45.73
2023-04-24T22:02:06.317Z,45.83
2023-04-24T22:04:33.368Z,45.96
2023-04-24T22:07:00.230Z,46.11
2023-04-24T22:09:26.986Z,46.25
2023-04-24T22:11:53.707Z,46.35
2023-04-24T22:14:20.956Z,46.32
2023-04-24T22:16:50.375Z,46.47
2023-04-24T22:19:17.280Z,46.48
2023-04-24T22:21:44.155Z,46.37
2023-04-24T22:24:11.014Z,46.30
2023-04-24T22:26:37.845Z,46.23
2023-04-24T22:29:04.697Z,46.29
2023-04-24T22:31:31.930Z,46.21
2023-04-24T22:33:58.844Z,46.43
2023-04-24T22:36:26.805Z,46.55
2023-04-24T22:38:53.638Z,46.54
2023-04-24T22:41:21.755Z,46.66
2023-04-24T22:43:48.847Z,46.83
2023-04-24T22:46:16.408Z,47.00
2023-04-24T22:48:43.280Z,47.04
2023-04-24T22:51:10.923Z,47.05
2023-04-24T22:53:37.869Z,47.13
2023-04-24T22:56:05.024Z,47.20
2023-04-24T22:58:32.406Z,47.25
2023-04-24T23:01:00.335Z,47.31
2023-04-24T23:03:27.396Z,47.54
2023-04-24T23:05:54.474Z,47.55
2023-04-24T23:08:21.307Z,47.62
2023-04-24T23:10:48.156Z,47.79
2023-04-24T23:13:15.114Z,47.86
2023-04-24T23:15:42.279Z,47.87
2023-04-24T23:18:09.011Z,47.97
2023-04-24T23:20:35.756Z,47.88
2023-04-24T23:23:02.443Z,47.90
2023-04-24T23:25:29.257Z,48.02
2023-04-24T23:27:56.461Z,48.08
2023-04-24T23:30:23.221Z,48.13
2023-04-24T23:32:50.032Z,48.21
2023-04-24T23:35:16.851Z,48.13
2023-04-24T23:37:44.572Z,48.27
2023-04-24T23:40:11.515Z,48.30
2023-04-24T23:42:38.254Z,48.45
2023-04-24T23:45:05.585Z,48.45
2023-04-24T23:47:32.350Z,48.54
2023-04-24T23:49:59.098Z,48.66
2023-04-24T23:52:26.826Z,48.66
2023-04-24T23:54:53.542Z,48.74
2023-04-24T23:57:21.790Z,48.68
2023-04-24T23:59:48.755Z,48.59
